Terminal Aerodrome Forecast
Issued by NWS Tulsa, OK

Home | Current Version | Previous Version | Text Only | Print | Product List | Glossary On
Versions: 1 2 3 4 5 6 7 8 9 10 11 12 13 14
364
FTUS44 KTSA 250520
TAFFSM
TAF
KFSM 250520Z 2506/2606 VRB03KT P6SM SKC
     FM251500 16005KT P6SM SKC
     FM251900 19007KT P6SM SCT050
     FM260100 VRB03KT P6SM SKC=

USA.gov is the U.S. government's official web portal to all federal, state and local government web resources and services.